createdAt,value
2022-10-15T00:02:17.939Z,61.94
2022-10-15T00:07:20.627Z,62.34
2022-10-15T00:12:23.421Z,62.49
2022-10-15T00:17:26.158Z,62.98
2022-10-15T00:22:28.848Z,63.38
2022-10-15T00:27:31.680Z,63.39
2022-10-15T00:32:34.278Z,63.44
2022-10-15T00:37:37.606Z,63.35
2022-10-15T00:42:40.021Z,63.30
2022-10-15T00:47:47.815Z,63.38
2022-10-15T00:53:09.692Z,63.15
2022-10-15T00:58:16.434Z,63.14
2022-10-15T01:03:18.885Z,63.10
2022-10-15T01:08:21.419Z,63.19
2022-10-15T01:13:35.821Z,63.19
2022-10-15T01:18:45.865Z,63.24
2022-10-15T01:24:13.369Z,63.34
2022-10-15T01:29:34.665Z,63.31
2022-10-15T01:35:05.801Z,63.19
2022-10-15T01:40:26.619Z,63.54
2022-10-15T01:45:38.972Z,63.32
2022-10-15T01:50:48.737Z,63.85
2022-10-15T01:55:51.193Z,64.40
2022-10-15T02:00:57.337Z,65.00
2022-10-15T02:06:06.462Z,64.98
2022-10-15T02:11:15.942Z,64.88
2022-10-15T02:16:23.020Z,65.04
2022-10-15T02:21:35.794Z,64.08
2022-10-15T02:26:41.420Z,64.46
2022-10-15T02:31:46.665Z,64.22
2022-10-15T02:36:50.098Z,64.53
2022-10-15T02:41:54.255Z,64.29
2022-10-15T02:46:59.054Z,64.27
2022-10-15T02:52:01.473Z,64.50
2022-10-15T02:57:03.879Z,64.78
2022-10-15T03:02:06.327Z,64.71
2022-10-15T03:07:08.764Z,64.16
2022-10-15T03:12:11.168Z,64.96
2022-10-15T03:17:13.602Z,65.32
2022-10-15T03:22:16.017Z,65.07
2022-10-15T03:27:19.101Z,65.05
2022-10-15T03:32:21.651Z,64.81
2022-10-15T03:37:25.086Z,65.20
2022-10-15T03:42:27.823Z,64.75
2022-10-15T03:47:30.314Z,64.77
2022-10-15T03:52:32.844Z,65.08
2022-10-15T03:57:36.526Z,65.24
2022-10-15T04:02:39.215Z,64.96
2022-10-15T04:07:42.721Z,64.55
2022-10-15T04:12:45.192Z,64.43
2022-10-15T04:17:47.603Z,64.42
2022-10-15T04:22:50.256Z,63.55
2022-10-15T04:27:53.392Z,64.43
2022-10-15T04:32:55.803Z,64.37
2022-10-15T04:37:59.592Z,64.35
2022-10-15T04:43:01.992Z,64.35
2022-10-15T04:48:04.746Z,64.62
2022-10-15T04:53:07.791Z,64.90
2022-10-15T04:58:10.216Z,65.20
2022-10-15T05:03:12.738Z,64.98
2022-10-15T05:08:15.141Z,64.47
2022-10-15T05:13:17.543Z,64.09
2022-10-15T05:18:19.932Z,63.98
2022-10-15T05:23:22.351Z,63.73
2022-10-15T05:28:24.766Z,63.89
2022-10-15T05:33:27.883Z,63.86
2022-10-15T05:38:30.286Z,63.89
2022-10-15T05:43:35.061Z,63.61
2022-10-15T05:48:40.254Z,63.80
2022-10-15T05:53:43.774Z,63.98
2022-10-15T05:58:46.185Z,63.86
2022-10-15T06:03:48.706Z,64.04
2022-10-15T06:08:52.209Z,64.02
2022-10-15T06:13:54.846Z,63.59
2022-10-15T06:18:57.221Z,63.05
2022-10-15T06:23:59.737Z,63.08
2022-10-15T06:29:02.245Z,62.77
2022-10-15T06:34:04.792Z,62.34
2022-10-15T06:39:07.375Z,62.04
2022-10-15T06:44:09.993Z,61.85
2022-10-15T06:49:12.963Z,61.66
2022-10-15T06:54:15.716Z,61.51
2022-10-15T06:59:18.217Z,61.33
2022-10-15T07:04:23.337Z,60.99
2022-10-15T07:09:26.074Z,60.88
2022-10-15T07:14:28.535Z,60.68
2022-10-15T07:19:31.285Z,60.63
2022-10-15T07:24:33.705Z,60.35
2022-10-15T07:29:36.141Z,59.64
2022-10-15T07:34:39.072Z,61.56
2022-10-15T07:39:41.861Z,64.78
2022-10-15T07:44:44.708Z,63.88
2022-10-15T07:49:47.577Z,62.63
2022-10-15T07:54:50.086Z,61.65
2022-10-15T07:59:52.990Z,61.86
2022-10-15T08:04:55.372Z,61.43
2022-10-15T08:09:57.994Z,61.82
2022-10-15T08:15:00.513Z,62.50
2022-10-15T08:20:03.792Z,62.69
2022-10-15T08:25:08.440Z,61.82
2022-10-15T08:30:11.642Z,61.23
2022-10-15T08:35:14.182Z,61.32
2022-10-15T08:40:16.895Z,61.27
2022-10-15T08:45:45.615Z,61.49
2022-10-15T08:50:58.193Z,59.58
2022-10-15T08:56:05.232Z,63.47
2022-10-15T09:01:17.805Z,62.45
2022-10-15T09:06:32.881Z,60.69
2022-10-15T09:12:13.337Z,58.91
2022-10-15T09:17:22.666Z,62.23
2022-10-15T09:22:28.292Z,62.54
2022-10-15T09:27:39.903Z,60.62
2022-10-15T09:32:55.512Z,58.78
2022-10-15T09:38:25.647Z,62.43
2022-10-15T09:43:35.315Z,62.92
2022-10-15T09:48:46.182Z,60.33
2022-10-15T09:53:53.151Z,58.75
2022-10-15T09:58:58.744Z,62.46
2022-10-15T10:04:20.676Z,60.88
2022-10-15T10:09:32.728Z,56.46
2022-10-15T10:14:42.753Z,60.01
2022-10-15T10:20:02.225Z,63.61
2022-10-15T10:25:22.833Z,61.57
2022-10-15T10:30:25.492Z,58.40
2022-10-15T10:35:36.522Z,59.74
2022-10-15T10:40:39.282Z,63.15
2022-10-15T10:46:02.197Z,60.62
2022-10-15T10:51:09.674Z,58.44
2022-10-15T10:56:15.407Z,59.57
2022-10-15T11:01:19.179Z,62.85
2022-10-15T11:06:45.644Z,60.29
2022-10-15T11:12:13.906Z,58.26
2022-10-15T11:17:38.522Z,62.11
2022-10-15T11:23:19.872Z,61.79
2022-10-15T11:28:50.630Z,59.47
2022-10-15T11:33:56.386Z,59.98
2022-10-15T11:39:36.489Z,63.48
2022-10-15T11:45:10.652Z,61.39
2022-10-15T11:50:27.599Z,57.94
2022-10-15T11:55:53.897Z,61.35
2022-10-15T12:01:01.877Z,62.70
2022-10-15T12:06:14.060Z,60.36
2022-10-15T12:11:21.518Z,58.45
2022-10-15T12:16:42.977Z,59.14
2022-10-15T12:22:06.812Z,62.69
2022-10-15T12:27:30.581Z,62.51
2022-10-15T12:32:48.904Z,60.58
2022-10-15T12:37:51.975Z,58.59
2022-10-15T12:43:01.227Z,60.91
2022-10-15T12:48:03.690Z,62.72
2022-10-15T12:53:28.742Z,59.83
2022-10-15T12:58:34.349Z,60.14
2022-10-15T13:03:57.742Z,62.97
2022-10-15T13:09:27.086Z,61.39
2022-10-15T13:14:42.850Z,58.88
2022-10-15T13:19:57.619Z,60.30
2022-10-15T13:25:00.820Z,62.85
2022-10-15T13:30:06.220Z,60.83
2022-10-15T13:35:18.075Z,60.26
2022-10-15T13:40:24.063Z,57.89
2022-10-15T13:45:27.397Z,60.11
2022-10-15T13:50:34.654Z,64.31
2022-10-15T13:55:39.994Z,64.07
2022-10-15T14:00:42.941Z,62.79
2022-10-15T14:05:47.878Z,61.78
2022-10-15T14:10:52.779Z,58.80
2022-10-15T14:21:14.772Z,64.61
2022-10-15T14:26:24.176Z,64.27
2022-10-15T14:31:36.660Z,63.06
2022-10-15T14:36:43.572Z,61.88
2022-10-15T14:42:07.230Z,60.04
2022-10-15T14:47:25.076Z,58.47
2022-10-15T14:52:30.430Z,59.97
2022-10-15T14:57:40.099Z,65.75
2022-10-15T15:02:45.413Z,65.78
2022-10-15T15:07:48.530Z,63.69
2022-10-15T15:12:56.843Z,61.82
2022-10-15T15:17:59.387Z,60.86
2022-10-15T15:23:02.610Z,60.48
2022-10-15T15:28:12.283Z,59.30
2022-10-15T15:33:15.555Z,57.80
2022-10-15T15:38:20.191Z,59.58
2022-10-15T15:43:22.622Z,65.63
2022-10-15T15:48:25.283Z,65.37
2022-10-15T15:53:27.903Z,63.17
2022-10-15T15:58:30.468Z,62.21
2022-10-15T16:03:32.884Z,61.14
2022-10-15T16:08:37.123Z,60.09
2022-10-15T16:13:40.877Z,58.42
2022-10-15T16:18:43.448Z,60.56
2022-10-15T16:23:46.821Z,66.26
2022-10-15T16:28:49.848Z,65.66
2022-10-15T16:33:54.180Z,64.18
2022-10-15T16:38:57.035Z,63.35
2022-10-15T16:43:59.914Z,62.15
2022-10-15T16:49:03.028Z,61.37
2022-10-15T16:54:05.705Z,60.57
2022-10-15T16:59:09.012Z,60.12
2022-10-15T17:04:11.560Z,58.13
2022-10-15T17:09:14.560Z,61.70
2022-10-15T17:14:18.308Z,65.16
2022-10-15T17:19:23.553Z,64.04
2022-10-15T17:24:26.114Z,63.76
2022-10-15T17:29:32.453Z,63.18
2022-10-15T17:34:35.939Z,62.05
2022-10-15T17:39:38.481Z,62.07
2022-10-15T17:44:42.633Z,62.00
2022-10-15T17:49:45.182Z,61.40
2022-10-15T17:54:47.588Z,61.28
2022-10-15T17:59:51.221Z,61.54
2022-10-15T18:04:55.467Z,62.18
2022-10-15T18:09:58.039Z,62.36
2022-10-15T18:15:00.863Z,62.79
2022-10-15T18:20:03.569Z,62.66
2022-10-15T18:25:06.834Z,62.99
2022-10-15T18:30:11.703Z,63.66
2022-10-15T18:35:14.176Z,63.16
2022-10-15T18:40:16.616Z,63.35
2022-10-15T18:45:19.817Z,63.35
2022-10-15T18:50:22.911Z,63.47
2022-10-15T18:55:25.444Z,63.35
2022-10-15T19:00:29.203Z,63.42
2022-10-15T19:05:31.632Z,62.95
2022-10-15T19:10:34.112Z,63.27
2022-10-15T19:15:36.610Z,63.20
2022-10-15T19:20:40.458Z,63.23
2022-10-15T19:25:43.114Z,62.57
2022-10-15T19:30:57.976Z,62.30
2022-10-15T19:36:01.046Z,62.29
2022-10-15T19:41:04.865Z,62.67
2022-10-15T19:46:07.515Z,62.21
2022-10-15T19:51:10.364Z,62.28
2022-10-15T19:56:12.800Z,61.96
2022-10-15T20:01:15.301Z,62.09
2022-10-15T20:06:19.015Z,61.98
2022-10-15T20:11:21.802Z,62.24
2022-10-15T20:16:25.542Z,62.24
2022-10-15T20:21:30.426Z,62.36
2022-10-15T20:26:33.555Z,61.98
2022-10-15T20:31:36.252Z,61.52
2022-10-15T20:36:41.292Z,62.27
2022-10-15T20:41:43.779Z,62.26
2022-10-15T20:46:53.680Z,61.97
2022-10-15T20:51:57.846Z,61.62
2022-10-15T20:57:00.426Z,61.61
2022-10-15T21:02:02.921Z,61.48
2022-10-15T21:07:05.703Z,61.46
2022-10-15T21:12:10.113Z,61.38
2022-10-15T21:17:13.148Z,61.40
2022-10-15T21:22:15.578Z,61.76
2022-10-15T21:27:18.041Z,61.44
2022-10-15T21:32:20.471Z,61.66
2022-10-15T21:37:23.194Z,61.89
2022-10-15T21:42:31.237Z,61.94
2022-10-15T21:47:33.781Z,61.93
2022-10-15T21:52:39.264Z,62.19
2022-10-15T21:57:42.990Z,62.39
2022-10-15T22:02:49.785Z,61.09
2022-10-15T22:07:52.811Z,60.65
2022-10-15T22:12:57.787Z,60.91
2022-10-15T22:18:00.304Z,61.30
2022-10-15T22:23:03.671Z,61.27
2022-10-15T22:28:06.075Z,61.39
2022-10-15T22:33:08.608Z,61.70
2022-10-15T22:38:11.073Z,61.57
2022-10-15T22:43:13.544Z,61.51
2022-10-15T22:48:16.156Z,61.97
2022-10-15T22:53:18.889Z,62.35
2022-10-15T22:58:21.485Z,62.60
2022-10-15T23:03:24.019Z,62.47
2022-10-15T23:08:26.436Z,61.81
2022-10-15T23:13:28.826Z,61.57
2022-10-15T23:18:31.497Z,61.27
2022-10-15T23:23:33.980Z,61.61
2022-10-15T23:28:36.567Z,61.53
2022-10-15T23:33:39.067Z,61.64
2022-10-15T23:38:41.887Z,61.90
2022-10-15T23:43:44.540Z,61.95
2022-10-15T23:48:48.309Z,61.66
2022-10-15T23:53:52.265Z,62.17
2022-10-15T23:58:58.928Z,62.55
